Time;durP1;ratioP1;P1;durP2;ratioP2;P2;SDS_P1;SDS_P2;PMS_P1;PMS_P2;Temp;Humidity;BMP_temperature;BMP_pressure;BME280_temperature;BME280_humidity;BME280_pressure;Samples;Min_cycle;Max_cycle;Signal;HPM_P1;HPM_P2
2021/12/09 00:01:01;;;;;;;59.87;24.93;;;;;;;-1.13;100.00;98717.44;4884422;29;20419;-88
2021/12/09 00:03:31;;;;;;;58.50;24.43;;;;;;;-0.41;100.00;98901.16;4903313;29;20481;-89
2021/12/09 00:05:58;;;;;;;58.87;24.07;;;;;;;-2.01;100.00;98593.91;4913022;29;20411;-88
2021/12/09 00:08:26;;;;;;;53.27;23.47;;;;;;;-2.50;100.00;98586.69;4897133;29;20427;-89
2021/12/09 00:10:53;;;;;;;58.67;24.67;;;;;;;0.42;100.00;99065.25;4890322;29;20470;-88
2021/12/09 00:13:20;;;;;;;60.27;25.23;;;;;;;-1.21;100.00;98788.88;4905634;29;20407;-88
2021/12/09 00:15:45;;;;;;;61.43;24.70;;;;;;;0.37;100.00;99064.03;4903568;29;20415;-88
2021/12/09 00:18:11;;;;;;;59.27;24.63;;;;;;;-0.97;100.00;98857.84;4903708;29;20741;-89
2021/12/09 00:20:36;;;;;;;54.77;24.37;;;;;;;-1.46;100.00;98752.94;4888362;29;20261;-87
2021/12/09 00:23:02;;;;;;;59.03;23.60;;;;;;;-4.85;100.00;98207.97;4903288;29;20195;-88
2021/12/09 00:25:27;;;;;;;55.20;24.47;;;;;;;-0.12;100.00;99001.25;4888645;29;20182;-87
2021/12/09 00:27:53;;;;;;;55.40;24.33;;;;;;;0.30;100.00;99078.38;4887190;29;20300;-90
2021/12/09 00:30:20;;;;;;;60.37;24.57;;;;;;;-1.58;100.00;98769.31;4903368;29;20199;-89
2021/12/09 00:32:46;;;;;;;60.03;25.33;;;;;;;-3.48;100.00;98411.19;4906583;29;20203;-89
2021/12/09 00:35:15;;;;;;;58.17;24.73;;;;;;;-1.43;100.00;98776.34;4905069;29;20933;-90
2021/12/09 00:37:53;;;;;;;58.13;25.40;;;;;;;-2.81;100.00;98557.72;4916057;29;20468;-88
2021/12/09 00:40:18;;;;;;;57.60;23.48;;;;;;;-2.47;100.00;98621.59;4917113;29;20406;-87
2021/12/09 00:42:44;;;;;;;54.87;22.83;;;;;;;0.19;100.00;99069.22;4904959;29;20174;-92
2021/12/09 00:45:10;;;;;;;49.90;20.47;;;;;;;0.15;100.00;99107.91;4902730;29;20175;-90
2021/12/09 00:47:35;;;;;;;51.37;21.97;;;;;;;-1.58;100.00;98796.59;4903127;29;20234;-89
2021/12/09 00:50:02;;;;;;;50.07;20.97;;;;;;;0.10;100.00;99115.75;4887875;29;20198;-87
2021/12/09 00:52:28;;;;;;;49.70;20.20;;;;;;;-3.96;100.00;98387.41;4905299;29;20166;-89
2021/12/09 00:54:55;;;;;;;53.77;23.03;;;;;;;-1.01;100.00;98905.50;4905714;29;20471;-87
2021/12/09 00:57:24;;;;;;;51.87;22.03;;;;;;;-2.17;100.00;98708.31;4906580;29;20656;-87
2021/12/09 00:59:50;;;;;;;56.07;24.07;;;;;;;-2.19;100.00;98652.81;4909536;29;20431;-87
2021/12/09 01:02:15;;;;;;;53.23;23.07;;;;;;;0.25;100.00;99085.47;4910660;29;20506;-89
2021/12/09 01:04:43;;;;;;;58.97;23.87;;;;;;;-2.49;100.00;98637.94;4909014;29;20190;-88
2021/12/09 01:07:10;;;;;;;54.70;23.07;;;;;;;-1.98;100.00;98691.72;4907182;29;20316;-89
2021/12/09 01:09:36;;;;;;;54.47;22.23;;;;;;;0.31;100.00;99080.97;4894239;29;20844;-90
2021/12/09 01:12:04;;;;;;;54.00;24.30;;;;;;;-0.54;100.00;98936.59;4896618;29;20438;-90
2021/12/09 01:14:29;;;;;;;59.37;23.97;;;;;;;-1.46;100.00;98775.25;4914558;29;20419;-89
2021/12/09 01:16:55;;;;;;;54.30;23.00;;;;;;;0.43;100.00;99084.44;4917571;29;20514;-88
2021/12/09 01:19:22;;;;;;;56.07;23.90;;;;;;;0.42;100.00;99074.34;4921471;29;20163;-87
2021/12/09 01:21:48;;;;;;;56.30;23.87;;;;;;;-3.57;100.00;98379.16;4914872;29;20194;-88
2021/12/09 01:24:13;;;;;;;57.30;24.43;;;;;;;0.29;100.00;99055.13;4890871;29;20490;-87
2021/12/09 01:26:39;;;;;;;54.07;23.13;;;;;;;-1.58;100.00;98744.50;4907308;29;20467;-88
2021/12/09 01:29:13;;;;;;;56.40;23.63;;;;;;;-1.68;100.00;98713.16;4909930;29;20202;-89
2021/12/09 01:31:40;;;;;;;53.63;23.50;;;;;;;-0.84;100.00;98862.13;4909446;29;20198;-88
2021/12/09 01:34:08;;;;;;;56.90;24.73;;;;;;;-0.92;100.00;98854.09;4907831;29;20415;-87
2021/12/09 01:36:36;;;;;;;55.13;23.70;;;;;;;0.51;100.00;99051.03;4903380;29;20410;-90
2021/12/09 01:39:04;;;;;;;55.07;24.03;;;;;;;-0.40;100.00;98933.59;4885893;29;20426;-89
2021/12/09 01:41:29;;;;;;;56.27;24.20;;;;;;;-1.68;100.00;98707.31;4901461;29;20466;-87
2021/12/09 01:43:55;;;;;;;56.63;23.87;;;;;;;0.52;100.00;99037.81;4885202;29;20436;-89
2021/12/09 01:46:21;;;;;;;59.30;23.73;;;;;;;-2.87;100.00;98466.47;4901316;29;20182;-89
2021/12/09 01:48:49;;;;;;;58.57;24.47;;;;;;;-3.75;100.00;98307.59;4901746;29;20521;-88
2021/12/09 01:51:15;;;;;;;53.37;23.17;;;;;;;0.34;100.00;99023.97;4883146;29;20274;-89
2021/12/09 01:53:41;;;;;;;52.50;23.87;;;;;;;0.52;100.00;99054.41;4900815;29;20860;-90
2021/12/09 01:56:10;;;;;;;57.57;24.07;;;;;;;-0.87;100.00;98792.34;4884910;29;20404;-88
2021/12/09 01:58:37;;;;;;;58.80;24.77;;;;;;;-3.60;100.00;98309.69;4885047;29;20416;-89
2021/12/09 02:01:05;;;;;;;59.77;25.10;;;;;;;-1.57;100.00;98679.25;4900803;29;20912;-90
2021/12/09 02:03:30;;;;;;;73.73;35.07;;;;;;;-0.11;100.00;98883.63;4901288;29;20467;-88
2021/12/09 02:05:57;;;;;;;82.43;36.17;;;;;;;-2.04;100.00;98542.50;4899958;29;20418;-88
2021/12/09 02:08:23;;;;;;;102.80;43.30;;;;;;;-2.97;100.00;98387.28;4883853;29;20322;-89
2021/12/09 02:10:50;;;;;;;84.77;33.67;;;;;;;-3.10;100.00;98385.44;4913487;29;20759;-89
2021/12/09 02:13:16;;;;;;;78.27;33.53;;;;;;;-3.81;100.00;98250.25;4911542;29;20431;-88
2021/12/09 02:15:42;;;;;;;77.27;33.80;;;;;;;-1.71;100.00;98596.31;4884525;29;20861;-88
2021/12/09 02:18:11;;;;;;;67.10;28.30;;;;;;;-2.84;100.00;98436.16;4887963;29;20399;-89
2021/12/09 02:20:38;;;;;;;74.10;30.20;;;;;;;-2.09;100.00;98531.34;4915071;29;20171;-87
2021/12/09 02:23:09;;;;;;;61.13;26.47;;;;;;;-1.58;100.00;98631.25;4884083;29;20443;-88
2021/12/09 02:25:44;;;;;;;63.97;25.07;;;;;;;0.56;100.00;99017.38;4887175;29;20407;-87
2021/12/09 02:28:14;;;;;;;57.23;25.03;;;;;;;-0.35;100.00;98876.75;4893326;29;20458;-88
2021/12/09 02:30:41;;;;;;;57.53;24.37;;;;;;;-0.80;100.00;98807.00;4910247;29;20518;-88
2021/12/09 02:33:07;;;;;;;54.43;23.87;;;;;;;-1.26;100.00;98765.25;4894862;29;21355;-87
2021/12/09 02:35:32;;;;;;;55.27;24.33;;;;;;;-2.66;100.00;98507.78;4886669;29;20430;-91
2021/12/09 02:37:58;;;;;;;65.00;26.60;;;;;;;0.20;100.00;99021.16;4883954;29;20210;-89
2021/12/09 02:40:23;;;;;;;53.53;23.33;;;;;;;-0.32;100.00;98921.75;4882386;29;20171;-90
2021/12/09 02:42:49;;;;;;;57.83;24.63;;;;;;;-2.24;100.00;98592.09;4882616;29;20239;-89
2021/12/09 02:45:14;;;;;;;57.53;24.10;;;;;;;-0.01;100.00;98983.06;4897566;29;20175;-88
2021/12/09 02:47:40;;;;;;;59.57;25.27;;;;;;;-2.00;100.00;98646.09;4897819;29;20179;-87
2021/12/09 02:50:07;;;;;;;63.07;26.60;;;;;;;-3.25;100.00;98442.75;4882819;29;20549;-89
2021/12/09 02:52:34;;;;;;;71.30;31.77;;;;;;;-2.86;100.00;98520.22;4899044;29;20182;-89
2021/12/09 02:54:59;;;;;;;84.27;33.47;;;;;;;-3.45;100.00;98433.72;4898322;29;20418;-89
2021/12/09 02:57:25;;;;;;;87.67;35.83;;;;;;;-1.80;100.00;98695.66;4902615;29;20419;-89
2021/12/09 02:59:50;;;;;;;78.20;30.83;;;;;;;-4.21;100.00;98281.66;4888899;29;20261;-87
2021/12/09 03:02:16;;;;;;;69.80;28.40;;;;;;;0.18;100.00;99033.50;4904214;29;20727;-89
2021/12/09 03:04:59;;;;;;;66.03;25.07;;;;;;;0.08;100.00;99038.53;4881563;29;20178;-90
2021/12/09 03:07:32;;;;;;;58.70;24.73;;;;;;;-2.14;100.00;98722.59;4885033;29;20257;-89
2021/12/09 03:10:09;;;;;;;69.50;29.30;;;;;;;-0.01;100.00;99055.22;4888296;29;20973;-89
2021/12/09 03:12:41;;;;;;;77.97;30.70;;;;;;;-1.36;100.00;98785.16;4870648;29;20955;-88
2021/12/09 03:15:08;;;;;;;124.43;48.70;;;;;;;0.30;100.00;99065.94;4901362;29;20427;-88
2021/12/09 03:17:35;;;;;;;86.33;36.17;;;;;;;-1.29;100.00;98840.38;4901296;29;20523;-89
2021/12/09 03:20:01;;;;;;;76.10;30.67;;;;;;;-2.20;100.00;98675.88;4885284;29;20423;-87
2021/12/09 03:22:26;;;;;;;74.00;31.10;;;;;;;0.07;100.00;99058.28;4901556;29;20426;-88
2021/12/09 03:24:52;;;;;;;62.37;26.23;;;;;;;-2.72;100.00;98588.19;4901058;29;20950;-88
2021/12/09 03:27:18;;;;;;;59.67;24.23;;;;;;;-0.85;100.00;98948.22;4900658;29;20551;-89
2021/12/09 03:29:43;;;;;;;55.00;25.10;;;;;;;-0.55;100.00;98993.66;4885356;29;20191;-89
2021/12/09 03:32:14;;;;;;;55.67;22.13;;;;;;;-1.70;100.00;98778.28;4885689;29;20197;-88
2021/12/09 03:34:41;;;;;;;59.43;23.23;;;;;;;-5.35;100.00;98211.13;4885661;29;20530;-88
2021/12/09 03:37:13;;;;;;;52.63;21.47;;;;;;;-1.79;100.00;98836.28;4886520;29;20418;-90
2021/12/09 03:39:40;;;;;;;52.78;22.10;;;;;;;-4.75;100.00;98314.09;4901763;29;20415;-89
2021/12/09 03:42:08;;;;;;;54.13;22.63;;;;;;;-3.15;100.00;98584.66;4888354;29;20207;-87
2021/12/09 03:44:34;;;;;;;50.97;20.63;;;;;;;-0.28;100.00;99077.91;4904276;29;20411;-90
2021/12/09 03:47:02;;;;;;;60.33;23.60;;;;;;;-2.77;100.00;98626.53;4902369;29;20195;-89
2021/12/09 03:49:28;;;;;;;51.90;22.55;;;;;;;-2.30;100.00;98720.47;4902945;29;20202;-89
2021/12/09 03:51:54;;;;;;;71.63;29.23;;;;;;;-1.64;100.00;98887.91;4904945;29;20182;-89
2021/12/09 03:56:47;;;;;;;92.57;34.50;;;;;;;-0.84;100.00;98947.47;4941321;29;20233;-90
2021/12/09 03:59:13;;;;;;;114.13;43.77;;;;;;;-0.77;100.00;98971.22;4941554;29;21005;-89
2021/12/09 04:01:40;;;;;;;95.73;38.97;;;;;;;-1.93;100.00;98802.06;4942341;29;20723;-89
2021/12/09 04:04:07;;;;;;;74.43;30.97;;;;;;;-2.57;100.00;98688.47;4948089;29;20425;-89
2021/12/09 04:06:34;;;;;;;57.60;24.53;;;;;;;-3.67;100.00;98494.50;4957118;28;20448;-89
2021/12/09 04:09:00;;;;;;;59.30;23.60;;;;;;;-2.76;100.00;98656.38;4934546;29;20477;-88
2021/12/09 04:11:26;;;;;;;52.90;22.60;;;;;;;-3.07;100.00;98623.28;4944546;29;20481;-88
2021/12/09 04:13:52;;;;;;;54.08;22.95;;;;;;;-2.36;100.00;98727.41;4941994;29;20256;-89
2021/12/09 04:16:19;;;;;;;54.23;21.97;;;;;;;-3.76;100.00;98469.00;4954478;28;20176;-92
2021/12/09 04:18:45;;;;;;;65.10;27.02;;;;;;;-0.14;100.00;99085.69;4929292;29;20261;-88
2021/12/09 04:21:12;;;;;;;66.67;27.63;;;;;;;-4.21;100.00;98375.50;4941067;29;20701;-87
2021/12/09 04:23:38;;;;;;;67.85;26.60;;;;;;;-0.75;100.00;99007.84;4923866;29;20587;-88
2021/12/09 04:26:05;;;;;;;60.27;25.80;;;;;;;-2.99;100.00;98580.22;4940098;29;20185;-90
2021/12/09 04:28:31;;;;;;;60.90;26.53;;;;;;;-3.74;100.00;98480.78;4939049;29;20870;-87
2021/12/09 04:30:57;;;;;;;77.73;30.67;;;;;;;-4.11;100.00;98388.59;4938206;29;20468;-88
2021/12/09 04:33:22;;;;;;;100.37;38.70;;;;;;;-2.63;100.00;98643.38;4923022;29;20177;-88
2021/12/09 04:35:48;;;;;;;78.70;30.00;;;;;;;-0.07;100.00;99079.59;4939371;29;20429;-89
2021/12/09 04:38:14;;;;;;;78.90;33.33;;;;;;;-2.88;100.00;98634.72;4941695;29;20177;-88
2021/12/09 04:40:39;;;;;;;74.43;30.50;;;;;;;-3.80;100.00;98462.09;4940453;29;20631;-89
2021/12/09 04:43:05;;;;;;;288.87;92.33;;;;;;;-0.05;100.00;99093.03;4943326;29;20210;-88
2021/12/09 04:47:59;;;;;;;154.10;56.33;;;;;;;-1.33;100.00;98889.66;4958175;28;20221;-85
2021/12/09 04:50:25;;;;;;;285.73;99.73;;;;;;;-1.23;100.00;98936.81;4994685;23;20528;-89
2021/12/09 04:52:51;;;;;;;389.42;145.55;;;;;;;-0.89;100.00;99035.69;4945092;29;20190;-90
2021/12/09 04:55:18;;;;;;;181.07;65.77;;;;;;;-3.02;100.00;98656.69;4945034;29;20213;-89
2021/12/09 04:57:45;;;;;;;127.87;51.67;;;;;;;-0.52;100.00;99051.09;4923245;29;20658;-91
2021/12/09 05:00:16;;;;;;;168.48;70.03;;;;;;;-3.89;100.00;98505.81;4954134;29;20433;-90
2021/12/09 05:05:16;;;;;;;138.45;53.72;;;;;;;-3.81;100.00;98583.94;4940091;29;20428;-87
2021/12/09 05:07:42;;;;;;;135.10;53.00;;;;;;;-3.32;100.00;98666.50;4954607;29;20262;-89
2021/12/09 05:10:08;;;;;;;127.07;48.33;;;;;;;-3.59;100.00;98617.16;4954806;29;20271;-87
2021/12/09 05:12:34;;;;;;;135.90;50.70;;;;;;;-4.34;100.00;98444.34;4946553;29;20173;-87
2021/12/09 05:15:00;;;;;;;132.27;51.17;;;;;;;-4.51;100.00;98391.84;4963025;28;20173;-87
2021/12/09 05:17:25;;;;;;;121.70;48.03;;;;;;;-2.95;100.00;98672.06;4940041;29;20241;-89
2021/12/09 05:19:53;;;;;;;133.43;50.87;;;;;;;-3.31;100.00;98591.56;4939961;29;20224;-88
2021/12/09 05:22:20;;;;;;;160.20;61.45;;;;;;;-0.42;100.00;99094.22;4941158;29;20178;-86
2021/12/09 05:24:49;;;;;;;244.27;99.75;;;;;;;-3.31;100.00;98641.03;4965461;29;20173;-87
2021/12/09 05:27:16;;;;;;;258.25;85.75;;;;;;;-0.74;100.00;99079.16;4957268;29;20213;-87
2021/12/09 05:29:43;;;;;;;238.30;80.80;;;;;;;-0.69;100.00;99099.44;4954880;28;20178;-90
2021/12/09 05:32:11;;;;;;;181.02;62.03;;;;;;;-3.72;100.00;98609.47;4936082;29;20185;-89
2021/12/09 05:34:47;;;;;;;141.85;48.72;;;;;;;-1.13;100.00;99045.22;4951679;29;20187;-89
2021/12/09 05:37:16;;;;;;;135.50;52.70;;;;;;;-1.61;100.00;99000.69;4938484;29;20184;-87
2021/12/09 05:39:43;;;;;;;156.02;52.83;;;;;;;-2.58;100.00;98826.34;4963517;28;20221;-87
2021/12/09 05:42:10;;;;;;;121.13;45.00;;;;;;;-3.17;100.00;98754.44;4962664;29;20188;-87
2021/12/09 05:44:37;;;;;;;75.40;32.08;;;;;;;-1.23;100.00;99145.38;4940978;29;20547;-88
2021/12/09 05:47:05;;;;;;;65.15;26.95;;;;;;;-2.74;100.00;98896.72;4938592;29;20180;-86
2021/12/09 05:49:36;;;;;;;109.63;40.72;;;;;;;-2.62;100.00;98962.19;4947713;29;20216;-93
2021/12/09 05:52:03;;;;;;;116.75;43.90;;;;;;;-2.84;100.00;98934.69;4969559;29;20279;-90
2021/12/09 05:54:32;;;;;;;106.88;39.70;;;;;;;-4.42;100.00;98597.56;4952634;29;20181;-90
2021/12/09 05:56:58;;;;;;;117.57;40.88;;;;;;;-2.43;100.00;98914.34;4957754;29;20577;-89
2021/12/09 05:59:25;;;;;;;144.40;53.43;;;;;;;-5.37;100.00;98459.13;4940179;29;20173;-89
2021/12/09 06:01:51;;;;;;;116.70;44.60;;;;;;;-4.20;100.00;98621.78;4936167;28;20224;-87
2021/12/09 06:04:17;;;;;;;177.87;78.77;;;;;;;-4.40;100.00;98557.47;4948151;29;20189;-87
2021/12/09 06:06:45;;;;;;;353.10;171.23;;;;;;;-1.59;100.00;99000.81;4938429;29;20193;-86
2021/12/09 06:09:12;;;;;;;114.80;50.63;;;;;;;-3.33;100.00;98765.34;4951249;29;20177;-89
2021/12/09 06:11:43;;;;;;;84.03;32.10;;;;;;;-4.23;100.00;98655.25;4930874;29;20228;-88
2021/12/09 06:14:09;;;;;;;51.92;21.95;;;;;;;-2.80;100.00;98898.69;4941575;29;20180;-88
2021/12/09 06:16:36;;;;;;;55.10;21.30;;;;;;;-2.68;100.00;98936.88;4938404;29;20181;-89
2021/12/09 06:19:03;;;;;;;65.13;26.15;;;;;;;-5.17;100.00;98502.84;4936997;29;20198;-91
2021/12/09 06:21:29;;;;;;;63.80;26.48;;;;;;;-4.47;100.00;98603.69;4957485;29;20184;-91
2021/12/09 06:23:56;;;;;;;50.70;19.67;;;;;;;-4.45;100.00;98548.75;4956507;29;20183;-90
2021/12/09 06:26:22;;;;;;;51.97;19.98;;;;;;;-0.13;100.00;99228.34;4920267;29;20248;-89
2021/12/09 06:28:48;;;;;;;52.78;21.42;;;;;;;-0.16;100.00;99218.16;4957765;29;20173;-88
2021/12/09 06:31:14;;;;;;;44.70;17.93;;;;;;;-1.95;100.00;98906.84;4969338;28;20221;-87
2021/12/09 06:33:40;;;;;;;76.87;29.97;;;;;;;-2.10;100.00;98900.59;4956892;29;20180;-89
2021/12/09 06:36:06;;;;;;;67.53;27.23;;;;;;;-4.12;100.00;98558.22;4936501;29;20173;-90
2021/12/09 06:41:18;;;;;;;68.47;29.75;;;;;;;0.28;100.00;99196.84;4965529;23;20245;-90
2021/12/09 06:43:45;;;;;;;75.47;33.03;;;;;;;-2.30;100.00;98730.38;4894986;29;20183;-91
2021/12/09 06:46:12;;;;;;;74.95;30.85;;;;;;;-3.75;100.00;98456.78;4901138;29;20198;-89
2021/12/09 06:48:43;;;;;;;66.57;27.93;;;;;;;-0.57;100.00;98918.97;4900427;29;20211;-90
2021/12/09 06:51:10;;;;;;;63.43;29.67;;;;;;;-0.26;100.00;98942.13;4886232;29;20470;-88
2021/12/09 06:53:36;;;;;;;65.97;27.57;;;;;;;2.11;100.00;99176.06;4907838;29;20482;-89
2021/12/09 06:56:03;;;;;;;51.33;23.10;;;;;;;3.49;98.68;98946.47;4917350;29;20417;-89
2021/12/09 06:58:28;;;;;;;46.33;20.37;;;;;;;6.35;83.60;98998.50;4900143;29;20414;-89
2021/12/09 07:00:55;;;;;;;42.40;20.50;;;;;;;7.85;76.33;98986.03;4901969;28;20454;-89
2021/12/09 07:03:21;;;;;;;44.43;21.53;;;;;;;8.15;71.99;98881.59;4901082;29;20182;-89
2021/12/09 07:05:51;;;;;;;110.27;46.87;;;;;;;6.52;69.03;98676.81;4886362;29;20511;-88
2021/12/09 07:08:17;;;;;;;51.60;24.80;;;;;;;3.99;74.63;98664.19;4885061;29;20419;-88
2021/12/09 07:10:45;;;;;;;54.73;26.50;;;;;;;5.91;77.83;99101.63;4901885;29;20475;-88
2021/12/09 07:13:11;;;;;;;50.57;24.17;;;;;;;4.59;79.29;98990.06;4902478;29;20425;-88
2021/12/09 07:15:36;;;;;;;56.43;27.67;;;;;;;5.92;77.04;98880.66;4903716;29;20474;-87
2021/12/09 07:18:03;;;;;;;84.63;35.37;;;;;;;6.79;74.71;99005.88;4885423;29;20171;-86
2021/12/09 07:20:29;;;;;;;83.87;35.37;;;;;;;5.32;76.81;98903.28;4908030;29;20177;-86
2021/12/09 07:22:56;;;;;;;53.27;24.23;;;;;;;3.20;80.07;98822.06;4907104;29;20523;-85
2021/12/09 07:25:25;;;;;;;97.63;39.83;;;;;;;2.71;88.03;98968.03;4901451;29;20498;-86
2021/12/09 07:27:51;;;;;;;89.60;37.77;;;;;;;2.42;89.57;98894.41;4899972;29;20991;-87
2021/12/09 07:30:18;;;;;;;42.93;20.30;;;;;;;3.99;90.96;99185.88;4900552;29;20541;-87
2021/12/09 07:32:44;;;;;;;72.53;27.57;;;;;;;1.69;91.14;98805.47;4894735;29;20185;-86
2021/12/09 07:35:11;;;;;;;265.83;79.27;;;;;;;4.02;90.31;99176.06;4918307;29;20426;-89
2021/12/09 07:37:40;;;;;;;65.43;30.30;;;;;;;3.37;93.88;99223.38;4919091;29;20280;-85
2021/12/09 07:40:08;;;;;;;82.33;34.67;;;;;;;2.16;94.41;98967.56;4917546;29;20530;-87
2021/12/09 07:42:34;;;;;;;106.20;43.23;;;;;;;3.05;92.82;99038.63;4908413;29;20924;-86
2021/12/09 07:45:01;;;;;;;89.93;33.43;;;;;;;3.31;90.13;99037.84;4900369;29;20429;-86
2021/12/09 07:47:27;;;;;;;58.50;26.10;;;;;;;3.79;89.00;99088.56;4901394;29;20179;-84
2021/12/09 07:49:52;;;;;;;55.37;25.03;;;;;;;3.17;88.47;98949.41;4902042;29;20457;-87
2021/12/09 07:52:18;;;;;;;79.60;36.90;;;;;;;4.13;89.02;99112.50;4893579;29;20194;-86
2021/12/09 07:54:43;;;;;;;52.13;26.03;;;;;;;3.21;87.45;98906.34;4921951;29;20631;-87
2021/12/09 07:57:09;;;;;;;47.20;23.33;;;;;;;4.40;88.12;99098.34;4919642;29;20182;-89
2021/12/09 07:59:35;;;;;;;39.23;19.03;;;;;;;3.03;86.76;98795.16;4908840;29;20173;-89
2021/12/09 08:02:00;;;;;;;48.20;20.13;;;;;;;3.29;85.35;98829.28;4919308;29;20241;-86
2021/12/09 08:04:26;;;;;;;37.03;17.10;;;;;;;3.63;85.50;98877.25;4918062;29;20663;-87
2021/12/09 08:06:52;;;;;;;39.57;20.20;;;;;;;2.90;84.32;98721.03;4919022;29;20687;-86
2021/12/09 08:09:17;;;;;;;39.50;19.97;;;;;;;4.12;83.97;98905.38;4921861;29;20473;-87
2021/12/09 08:11:44;;;;;;;39.97;21.13;;;;;;;5.34;84.03;99087.41;4918800;29;20225;-87
2021/12/09 08:14:11;;;;;;;47.60;24.37;;;;;;;5.43;83.07;99041.03;4905880;29;20186;-86
2021/12/09 08:16:38;;;;;;;96.27;49.03;;;;;;;6.08;83.46;99188.88;4933283;29;20449;-86
2021/12/09 08:19:11;;;;;;;78.70;37.13;;;;;;;5.26;82.60;99008.31;4935600;29;20394;-86
2021/12/09 08:21:37;;;;;;;79.90;36.27;;;;;;;6.56;82.70;99182.38;4924476;29;20438;-87
2021/12/09 08:24:14;;;;;;;71.33;35.80;;;;;;;4.92;81.22;98904.28;4911592;29;20431;-87
2021/12/09 08:26:39;;;;;;;74.27;36.80;;;;;;;4.63;80.90;98817.41;4887788;29;20434;-85
2021/12/09 08:29:07;;;;;;;86.77;40.43;;;;;;;5.44;80.84;98959.94;4889361;29;21005;-86
2021/12/09 08:31:34;;;;;;;83.93;41.53;;;;;;;3.43;80.25;98594.22;4884528;29;20198;-85
2021/12/09 08:34:03;;;;;;;60.00;31.37;;;;;;;6.86;80.86;99206.69;4885476;29;20423;-89
2021/12/09 08:36:30;;;;;;;62.53;31.53;;;;;;;7.26;79.54;99179.47;4883915;29;20427;-89
2021/12/09 08:38:55;;;;;;;70.17;34.90;;;;;;;5.48;78.66;98843.88;4901229;29;20833;-90
2021/12/09 08:41:23;;;;;;;63.47;31.90;;;;;;;5.76;78.45;98894.78;4901313;29;20194;-85
2021/12/09 08:43:49;;;;;;;58.90;29.17;;;;;;;4.26;78.24;98654.88;4906252;29;20206;-86
2021/12/09 08:46:16;;;;;;;62.93;31.07;;;;;;;5.38;78.52;98863.44;4891041;29;20179;-88
2021/12/09 08:48:42;;;;;;;59.77;29.07;;;;;;;5.78;77.35;98885.69;4902972;29;20279;-86
2021/12/09 08:51:09;;;;;;;61.60;31.77;;;;;;;5.86;76.58;98880.34;4907377;29;20186;-89
2021/12/09 08:53:34;;;;;;;60.03;30.27;;;;;;;5.79;76.50;98832.19;4910296;29;20261;-88
2021/12/09 08:56:00;;;;;;;53.13;27.73;;;;;;;4.75;77.53;98717.78;4924081;29;20577;-87
2021/12/09 08:58:28;;;;;;;62.07;30.70;;;;;;;3.18;77.95;98451.06;4924639;29;20178;-87
2021/12/09 09:00:57;;;;;;;68.63;30.33;;;;;;;6.00;78.02;98923.78;4915258;29;20277;-86
2021/12/09 09:03:26;;;;;;;75.90;37.73;;;;;;;7.78;77.55;99194.00;4927535;29;20302;-87
2021/12/09 09:05:52;;;;;;;82.10;41.17;;;;;;;4.42;76.54;98507.13;4911848;29;20175;-87
2021/12/09 09:08:18;;;;;;;64.93;32.00;;;;;;;6.08;76.35;98833.72;4933313;29;20175;-88
2021/12/09 09:10:45;;;;;;;59.83;28.83;;;;;;;6.14;75.69;98811.44;4912232;29;20281;-90
2021/12/09 09:13:13;;;;;;;56.60;26.80;;;;;;;4.74;75.23;98538.09;4902927;29;20228;-85
2021/12/09 09:15:39;;;;;;;49.60;24.60;;;;;;;5.19;74.79;98559.66;4919273;29;20174;-87
2021/12/09 09:18:06;;;;;;;64.33;29.83;;;;;;;5.94;74.88;98702.38;4930956;29;20971;-88
2021/12/09 09:20:34;;;;;;;58.93;27.47;;;;;;;8.59;74.69;99091.31;4929602;29;20193;-87
2021/12/09 09:23:01;;;;;;;60.10;29.20;;;;;;;5.14;73.33;98474.91;4920305;29;20558;-88
2021/12/09 09:25:30;;;;;;;60.10;31.43;;;;;;;8.78;73.25;99111.53;4904419;29;20194;-88
2021/12/09 09:27:59;;;;;;;64.23;32.40;;;;;;;6.21;73.16;98653.50;4921205;29;20226;-86
2021/12/09 09:30:33;;;;;;;67.27;34.00;;;;;;;6.05;73.37;98598.28;4918762;29;20226;-87
2021/12/09 09:32:59;;;;;;;69.07;32.60;;;;;;;5.57;72.40;98508.88;4918760;29;20173;-89
2021/12/09 09:35:24;;;;;;;64.23;32.10;;;;;;;9.20;72.26;99109.22;4916903;29;20291;-89
2021/12/09 09:37:50;;;;;;;65.73;31.07;;;;;;;9.23;72.08;99104.31;4917249;29;20174;-88
2021/12/09 09:40:38;;;;;;;93.63;39.47;;;;;;;6.90;72.86;98731.44;4918308;29;20222;-88
2021/12/09 09:43:14;;;;;;;188.63;77.70;;;;;;;6.73;73.28;98747.38;4919901;29;20186;-87
2021/12/09 09:45:40;;;;;;;107.50;47.43;;;;;;;6.94;73.92;98831.44;4916654;29;20170;-88
2021/12/09 09:48:12;;;;;;;87.77;40.50;;;;;;;6.00;75.14;98654.97;4916344;29;20194;-87
2021/12/09 09:50:39;;;;;;;98.97;42.40;;;;;;;9.21;73.06;99068.84;4917606;29;20688;-86
2021/12/09 09:53:09;;;;;;;75.33;37.13;;;;;;;8.21;71.98;98849.09;4918144;29;20189;-87
2021/12/09 09:55:35;;;;;;;72.77;34.97;;;;;;;8.47;71.82;98883.03;4908112;29;20210;-86
2021/12/09 09:58:01;;;;;;;70.53;34.47;;;;;;;6.53;71.60;98617.34;4899956;29;20181;-86
2021/12/09 10:00:27;;;;;;;77.57;36.10;;;;;;;9.52;72.31;99108.06;4906349;29;20252;-87
2021/12/09 10:02:54;;;;;;;85.70;37.67;;;;;;;9.76;71.82;99104.91;4916922;29;20188;-88
2021/12/09 10:05:28;;;;;;;74.47;36.33;;;;;;;7.43;72.10;98695.25;4915316;29;20196;-89
2021/12/09 10:07:55;;;;;;;65.10;32.77;;;;;;;8.69;71.36;98934.47;4916225;29;20178;-88
2021/12/09 10:10:21;;;;;;;65.40;33.77;;;;;;;5.67;73.43;98540.28;4899779;29;20210;-88
2021/12/09 10:12:59;;;;;;;77.03;37.97;;;;;;;5.54;74.57;98495.31;4915962;29;20281;-88
2021/12/09 10:15:43;;;;;;;90.93;43.27;;;;;;;7.46;73.84;98781.88;4916512;29;20201;-87
2021/12/09 10:18:10;;;;;;;95.23;42.97;;;;;;;9.50;72.91;99057.50;4907152;29;20229;-87
2021/12/09 10:20:54;;;;;;;159.50;58.87;;;;;;;9.20;74.11;99066.28;4915974;29;20200;-86
2021/12/09 10:23:28;;;;;;;89.10;42.97;;;;;;;7.79;74.21;98812.75;4919491;29;20166;-86
2021/12/09 10:26:15;;;;;;;89.20;44.40;;;;;;;7.73;73.59;98846.09;4917526;29;20169;-88
2021/12/09 10:28:48;;;;;;;104.60;48.73;;;;;;;8.61;73.31;98910.59;4918493;29;20558;-88
2021/12/09 10:31:18;;;;;;;76.73;37.73;;;;;;;8.15;74.32;98863.94;4918297;29;20201;-87
2021/12/09 10:34:04;;;;;;;79.70;37.17;;;;;;;6.77;73.75;98582.38;4919017;29;20282;-88
2021/12/09 10:36:41;;;;;;;67.00;34.27;;;;;;;7.75;74.05;98764.72;4913098;29;20174;-86
2021/12/09 10:39:29;;;;;;;67.83;32.83;;;;;;;9.47;73.29;98995.06;4899718;29;20173;-86
2021/12/09 10:41:57;;;;;;;66.90;34.37;;;;;;;8.32;73.15;98797.50;4918249;29;20171;-89
2021/12/09 10:44:33;;;;;;;65.23;33.47;;;;;;;9.83;73.43;99041.16;4918676;29;20226;-87
2021/12/09 10:47:11;;;;;;;62.07;30.90;;;;;;;9.07;73.31;98908.31;4903729;29;20182;-88
2021/12/09 10:50:04;;;;;;;54.83;29.23;;;;;;;8.44;74.51;98827.41;4914731;29;20254;-86
2021/12/09 10:52:39;;;;;;;59.33;31.67;;;;;;;9.16;76.46;98958.34;4900005;29;20214;-90
2021/12/09 10:55:08;;;;;;;55.77;27.93;;;;;;;8.89;77.40;98970.69;4904895;29;20173;-88
2021/12/09 10:57:34;;;;;;;53.13;28.53;;;;;;;8.88;77.40;98943.69;4912621;29;20265;-86
2021/12/09 11:00:35;;;;;;;48.50;24.30;;;;;;;7.90;75.27;98693.16;4899635;29;20170;-88
2021/12/09 11:03:03;;;;;;;45.90;23.27;;;;;;;9.88;75.35;99018.63;4882290;29;20285;-87
2021/12/09 11:05:30;;;;;;;47.23;23.97;;;;;;;7.54;75.41;98613.50;4898806;29;20207;-88
2021/12/09 11:08:27;;;;;;;47.20;24.37;;;;;;;9.73;76.06;99006.22;4908073;29;20232;-88
2021/12/09 11:11:02;;;;;;;46.23;23.27;;;;;;;8.18;75.72;98725.44;4899816;29;20222;-88
2021/12/09 11:13:40;;;;;;;46.83;24.67;;;;;;;9.14;75.47;98953.25;4916062;29;20609;-88
2021/12/09 11:16:07;;;;;;;49.83;25.27;;;;;;;6.63;75.16;98528.97;4926441;29;20232;-85
2021/12/09 11:18:39;;;;;;;46.93;25.17;;;;;;;8.48;76.01;98835.19;4916342;29;20186;-88
2021/12/09 11:21:15;;;;;;;45.30;23.87;;;;;;;9.41;76.18;98989.75;4926709;29;20162;-88
2021/12/09 11:23:50;;;;;;;55.03;24.50;;;;;;;9.11;76.74;98982.53;4912513;29;20249;-90
2021/12/09 11:26:25;;;;;;;60.53;30.27;;;;;;;7.50;77.58;98773.66;4928632;29;20201;-87
2021/12/09 11:29:05;;;;;;;56.00;30.30;;;;;;;8.80;77.80;98887.84;4912339;29;20189;-88